Latest Weather Observations for Ngukurr AWS

IDD60801

Issued at 3:01 pm CST Monday 8 February 2016 (issued every 30 minutes, with the page automatically refreshed every 10 minutes)

About weather observations | Map of weather stations | Latest weather observations for NT | Other Formats
Station Details ID: 014299 Name: NGUKURR AIRPORT Lat: -14.72 Lon: 134.75 Height: 14.46 m
Data from the previous 72 hours. | See also: Recent months at Ngukurr AWS
Date/Time
CST
Temp
°C
App
Temp
°C
Dew
Point
Rel
Hum
%
Delta-T
°C
Wind Press
QNH
hPa
Press
MSL
hPa
Rain
since 9 am
mm
Dir
 
Spd
km/h
Gust
km/h
Spd
kts
Gust
kts
08/03:00pm 39.2 38.9 14.3 23 15.6 S 9 15 5 8 1005.0 1004.9 0.0
08/02:30pm 39.3 38.6 14.3 22 15.7 ESE 11 19 6 10 1005.4 1005.3 0.0
08/02:00pm 39.0 38.2 14.1 23 15.5 S 11 24 6 13 1005.9 1005.8 0.0
08/01:30pm 38.7 38.4 14.5 24 15.2 WSW 9 19 5 10 1006.3 1006.2 0.0
08/01:00pm 38.1 38.5 16.4 27 13.9 SW 9 15 5 8 1006.9 1006.8 0.0
08/12:30pm 37.3 38.3 16.8 29 13.2 SSW 7 13 4 7 1007.3 1007.2 0.0
08/12:00pm 36.1 37.5 17.3 33 12.2 W 6 13 3 7 1007.8 1007.7 0.0
08/11:30am 35.3 35.8 17.5 34 11.5 W 11 17 6 9 1008.1 1008.0 0.0
08/11:00am 34.8 35.7 18.4 38 10.7 WNW 11 19 6 10 1008.4 1008.3 0.0
08/10:30am 33.5 34.4 18.4 40 9.8 W 11 17 6 9 1008.6 1008.5 0.0
08/10:00am 32.7 33.8 18.8 43 9.1 W 11 20 6 11 1009.0 1008.9 0.0
08/09:30am 31.9 33.8 20.5 51 7.6 WNW 11 17 6 9 1009.1 1009.0 0.0
08/09:00am 30.6 33.2 20.5 54 6.7 WNW 7 17 4 9 1009.2 1009.1 0.0
08/08:30am 29.6 33.1 21.8 63 5.3 W 6 7 3 4 1009.1 1009.0 0.0
08/08:00am 28.4 32.3 21.9 68 4.4 WNW 4 6 2 3 1009.0 1008.9 0.0
08/07:30am 26.9 30.9 22.1 75 3.2 WNW 4 6 2 3 1008.6 1008.5 0.0
08/07:00am 24.5 29.7 22.8 90 1.1 CALM 0 0 0 0 1008.2 1008.1 0.0
08/06:30am 23.2 27.7 21.6 91 1.1 CALM 0 0 0 0 1007.8 1007.7 0.0
08/06:00am 23.3 27.2 20.4 84 1.9 CALM 0 0 0 0 1007.4 1007.3 0.0
08/05:30am 23.6 27.7 20.7 84 1.9 CALM 0 0 0 0 1007.2 1007.1 0.0
08/05:00am 24.3 28.0 20.8 81 2.3 SW 2 4 1 2 1007.1 1007.0 0.0
08/04:30am 24.0 28.3 21.1 84 1.9 CALM 0 0 0 0 1007.0 1006.9 0.0
08/04:00am 23.8 27.6 20.1 80 2.4 CALM 0 2 0 1 1007.0 1006.9 0.0
08/03:30am 23.9 27.3 19.4 76 2.9 CALM 0 0 0 0 1007.0 1006.9 0.0
08/03:00am 23.7 26.9 19.8 79 2.5 SE 2 2 1 1 1007.1 1007.0 0.0
08/02:30am 24.1 27.4 20.0 78 2.7 SE 2 4 1 2 1007.5 1007.4 0.0
08/02:00am 23.9 26.8 18.3 71 3.5 CALM 0 0 0 0 1007.8 1007.7 0.0
08/01:30am 24.6 27.3 17.8 66 4.3 CALM 0 0 0 0 1007.9 1007.8 0.0
08/01:00am 25.4 28.3 19.8 71 3.6 NNW 4 6 2 3 1008.4 1008.3 0.0
08/12:30am 25.7 28.7 19.3 67 4.1 NW 2 4 1 2 1008.5 1008.4 0.0
08/12:00am 26.3 28.7 18.7 63 4.9 WNW 4 4 2 2 1008.7 1008.6 0.0
 
Date/Time
CST
Temp
°C
App
Temp
°C
Dew
Point
Rel
Hum
%
Delta-T
°C
Wind Press
QNH
hPa
Press
MSL
hPa
Rain
since 9 am
mm
Dir
 
Spd
km/h
Gust
km/h
Spd
kts
Gust
kts
07/11:30pm 27.8 29.3 16.7 50 6.9 W 4 7 2 4 1008.9 1008.8 0.0
07/11:00pm 26.6 29.3 17.7 58 5.6 CALM 0 4 0 2 1008.9 1008.8 0.0
07/10:30pm 27.0 29.5 17.2 55 6.1 CALM 0 0 0 0 1008.5 1008.4 0.0
07/10:00pm 28.3 30.4 16.2 47 7.5 CALM 0 0 0 0 1008.2 1008.1 0.0
07/09:30pm 30.8 31.6 14.8 37 9.8 ENE 4 6 2 3 1007.9 1007.8 0.0
07/09:00pm 28.3 31.2 18.1 54 6.5 CALM 0 0 0 0 1007.4 1007.3 0.0
07/08:30pm 29.1 31.7 17.6 50 7.3 CALM 0 0 0 0 1007.1 1007.0 0.0
07/08:00pm 30.5 32.1 15.0 39 9.5 CALM 0 0 0 0 1006.5 1006.4 0.0
07/07:30pm 31.9 33.0 13.6 32 11.1 CALM 0 0 0 0 1006.2 1006.1 0.0
07/07:00pm 34.1 34.3 13.0 28 12.7 SE 4 6 2 3 1005.8 1005.7 0.0
07/06:30pm 36.4 35.9 10.6 21 15.2 SE 4 9 2 5 1005.4 1005.3 0.0
07/06:00pm 36.9 35.9 11.0 21 15.4 SSE 7 11 4 6 1005.0 1004.9 0.0
07/05:30pm 37.4 35.9 10.7 20 15.8 SSE 9 17 5 9 1004.6 1004.5 0.0
07/05:00pm 37.4 36.7 9.9 19 16.0 SSE 4 11 2 6 1004.5 1004.4 0.0
07/04:30pm 37.7 36.4 10.1 19 16.2 SSE 7 22 4 12 1004.4 1004.3 0.0
07/04:00pm 37.5 36.2 10.0 19 16.1 SSE 7 17 4 9 1004.5 1004.4 0.0
07/03:30pm 37.9 35.5 8.6 17 16.9 SE 11 20 6 11 1004.7 1004.6 0.0
07/03:00pm 37.8 37.4 11.0 20 16.0 SE 4 13 2 7 1005.0 1004.9 0.0
07/02:30pm 37.3 36.2 9.8 19 16.1 SSW 6 13 3 7 1005.2 1005.1 0.0
07/02:00pm 37.1 35.6 10.4 20 15.7 ENE 9 15 5 8 1005.5 1005.4 0.0
07/01:30pm 37.1 36.1 10.4 20 15.7 E 6 13 3 7 1005.9 1005.8 0.0
07/01:00pm 37.3 35.4 10.6 20 15.7 SSE 11 20 6 11 1006.2 1006.1 0.0
07/12:30pm 36.5 35.2 9.2 19 15.7 E 6 11 3 6 1006.8 1006.7 0.0
07/12:00pm 36.3 34.6 9.8 20 15.4 S 9 17 5 9 1007.1 1007.0 0.0
07/11:30am 35.6 35.4 13.1 25 13.7 SSE 6 13 3 7 1007.4 1007.3 0.0
07/11:00am 35.2 34.9 13.4 27 13.3 SW 7 11 4 6 1007.6 1007.5 0.0
07/10:30am 34.2 34.6 13.6 29 12.6 NW 4 9 2 5 1007.7 1007.6 0.0
07/10:00am 33.0 35.1 18.0 41 9.7 WNW 4 7 2 4 1007.8 1007.7 0.0
07/09:30am 31.7 35.3 20.6 51 7.4 NW 2 6 1 3 1007.9 1007.8 0.0
07/09:00am 30.1 33.3 20.4 56 6.4 WNW 4 7 2 4 1007.9 1007.8 0.0
07/08:30am 28.5 31.8 20.8 63 5.1 W 4 7 2 4 1007.8 1007.7 0.0
07/08:00am 26.7 30.1 20.1 67 4.3 NW 2 6 1 3 1007.7 1007.6 0.0
07/07:30am 24.7 29.4 22.0 85 1.8 CALM 0 2 0 1 1007.5 1007.4 0.0
07/07:00am 22.7 27.6 22.4 98 0.2 CALM 0 0 0 0 1007.1 1007.0 0.0
07/06:30am 21.5 25.8 21.2 98 0.2 CALM 0 0 0 0 1006.9 1006.8 0.0
07/06:00am 21.6 26.0 21.3 98 0.2 CALM 0 0 0 0 1006.6 1006.5 0.0
07/05:30am 21.7 26.1 21.4 98 0.2 CALM 0 0 0 0 1006.3 1006.2 0.0
07/05:00am 21.9 26.0 21.6 98 0.2 S 2 6 1 3 1006.3 1006.2 0.0
07/04:30am 22.1 26.7 21.8 98 0.2 CALM 0 0 0 0 1006.3 1006.2 0.0
07/04:00am 22.6 27.1 21.6 94 0.7 CALM 0 0 0 0 1006.3 1006.2 0.0
07/03:30am 22.9 27.3 21.4 91 1.0 CALM 0 0 0 0 1006.4 1006.3 0.0
07/03:00am 23.2 27.7 21.5 90 1.1 CALM 0 0 0 0 1006.2 1006.1 0.0
07/02:30am 23.6 27.7 21.5 88 1.4 NNW 2 4 1 2 1006.4 1006.3 0.0
07/02:00am 23.7 28.1 21.4 87 1.5 CALM 0 0 0 0 1006.6 1006.5 0.0
07/01:30am 24.2 28.4 20.9 82 2.2 CALM 0 0 0 0 1006.8 1006.7 0.0
07/01:00am 24.5 28.5 20.6 79 2.5 CALM 0 0 0 0 1007.0 1006.9 0.0
07/12:30am 25.0 29.1 20.7 77 2.8 CALM 0 0 0 0 1007.1 1007.0 0.0
07/12:00am 25.3 29.2 20.3 74 3.3 CALM 0 0 0 0 1007.4 1007.3 0.0
 
Date/Time
CST
Temp
°C
App
Temp
°C
Dew
Point
Rel
Hum
%
Delta-T
°C
Wind Press
QNH
hPa
Press
MSL
hPa
Rain
since 9 am
mm
Dir
 
Spd
km/h
Gust
km/h
Spd
kts
Gust
kts
06/11:30pm 25.9 29.7 20.2 71 3.7 CALM 0 2 0 1 1007.5 1007.4 0.0
06/11:00pm 26.2 28.4 19.3 65 4.4 S 6 6 3 3 1007.4 1007.3 0.0
06/10:30pm 26.7 30.7 20.5 69 4.1 CALM 0 0 0 0 1007.3 1007.2 0.0
06/10:00pm 27.0 31.3 21.1 70 3.9 CALM 0 0 0 0 1006.7 1006.6 0.0
06/09:30pm 27.5 30.8 19.0 59 5.5 CALM 0 2 0 1 1006.4 1006.3 0.0
06/09:00pm 28.3 31.3 20.1 61 5.4 S 4 4 2 2 1006.2 1006.1 0.0
06/08:30pm 29.4 31.9 19.1 54 6.7 SSW 4 4 2 2 1005.8 1005.7 0.0
06/08:00pm 30.4 32.7 17.8 46 8.0 S 2 4 1 2 1005.5 1005.4 0.0
06/07:30pm 31.7 34.1 18.7 46 8.5 S 4 4 2 2 1005.3 1005.2 0.0
06/07:00pm 33.6 35.0 16.5 36 10.8 S 4 6 2 3 1005.0 1004.9 0.0
06/06:30pm 34.7 36.4 16.1 33 11.8 S 2 4 1 2 1004.5 1004.4 0.0
06/06:00pm 35.5 36.1 15.3 30 12.7 WSW 6 7 3 4 1004.2 1004.1 0.0
06/05:30pm 35.8 35.7 15.0 29 13.0 SW 9 15 5 8 1004.0 1003.9 0.0
06/05:00pm 36.4 36.5 14.4 27 13.7 SW 7 11 4 6 1003.8 1003.7 0.0
06/04:30pm 36.8 35.6 14.1 25 14.1 WSW 13 19 7 10 1003.7 1003.6 0.0
06/04:00pm 37.3 36.9 14.0 25 14.4 WSW 9 20 5 11 1003.7 1003.6 0.0
06/03:30pm 37.1 37.0 13.8 25 14.4 WSW 7 15 4 8 1004.1 1004.0 0.0
06/03:00pm 37.1 36.8 14.4 26 14.2 WSW 9 15 5 8 1004.4 1004.3 0.0
06/02:30pm 36.6 36.2 14.0 26 14.0 W 9 17 5 9 1004.8 1004.7 0.0
06/02:00pm 36.1 35.7 14.1 26 13.6 WSW 9 17 5 9 1005.1 1005.0 0.0
06/01:30pm 35.9 35.3 14.5 27 13.3 W 11 20 6 11 1005.5 1005.4 0.0
06/01:00pm 35.5 35.1 14.2 28 13.1 SSW 9 17 5 9 1006.2 1006.1 0.0
06/12:30pm 35.6 36.0 15.3 29 12.8 SW 7 19 4 10 1006.6 1006.5 0.0
06/12:00pm 34.8 34.6 14.7 30 12.5 WSW 9 15 5 8 1006.9 1006.8 0.0
06/11:30am 34.2 35.1 16.1 34 11.4 WSW 6 13 3 7 1007.0 1006.9 0.0
06/11:00am 33.4 34.2 16.3 36 10.8 SSW 7 13 4 7 1007.2 1007.1 0.0
06/10:30am 32.6 33.6 16.4 37 10.2 SW 6 11 3 6 1007.5 1007.4 0.0
06/10:00am 32.1 32.7 16.8 40 9.7 WSW 9 15 5 8 1007.7 1007.6 0.0
06/09:30am 31.4 32.6 17.3 43 9.0 W 7 9 4 5 1007.6 1007.5 0.0
06/09:00am 30.0 32.2 19.1 52 7.1 WNW 6 13 3 7 1007.6 1007.5 0.0
06/08:30am 28.1 30.8 20.6 63 5.0 WNW 7 11 4 6 1007.5 1007.4 0.0
06/08:00am 25.9 30.4 23.6 87 1.6 WNW 6 9 3 5 1007.3 1007.2 0.0
06/07:30am 25.1 30.3 23.5 91 1.1 WNW 2 4 1 2 1006.9 1006.8 0.0
06/07:00am 24.2 30.0 23.9 98 0.2 CALM 0 0 0 0 1006.4 1006.3 0.0
06/06:30am 23.8 29.4 23.5 98 0.2 CALM 0 0 0 0 1006.1 1006.0 0.0
06/06:00am 23.7 29.2 23.4 98 0.2 CALM 0 0 0 0 1005.8 1005.7 0.0
06/05:30am 23.7 29.2 23.4 98 0.2 CALM 0 2 0 1 1005.6 1005.5 0.0
06/05:00am 23.5 28.9 23.2 98 0.2 CALM 0 0 0 0 1005.5 1005.4 0.0
06/04:30am 23.2 28.4 22.9 98 0.2 CALM 0 0 0 0 1005.4 1005.3 0.0
06/04:00am 23.8 29.4 23.5 98 0.2 CALM 0 0 0 0 1005.3 1005.2 0.0
06/03:30am 23.6 29.0 23.3 98 0.2 CALM 0 0 0 0 1005.3 1005.2 0.0
06/03:00am 24.2 29.9 23.7 97 0.3 CALM 0 0 0 0 1005.4 1005.3 0.0
06/02:30am 23.9 28.9 22.5 92 0.9 CALM 0 0 0 0 1005.4 1005.3 0.0
06/02:00am 24.3 29.5 22.9 92 0.9 CALM 0 0 0 0 1005.7 1005.6 0.0
06/01:30am 24.9 29.8 22.4 86 1.7 CALM 0 0 0 0 1005.9 1005.8 0.0
06/01:00am 25.1 30.7 23.5 91 1.1 CALM 0 0 0 0 1006.0 1005.9 0.0
06/12:30am 25.4 31.9 25.1 98 0.2 CALM 0 0 0 0 1006.4 1006.3 0.0
06/12:00am 25.3 31.5 24.6 96 0.5 CALM 0 0 0 0 1006.6 1006.5 0.0
 
Date/Time
CST
Temp
°C
App
Temp
°C
Dew
Point
Rel
Hum
%
Delta-T
°C
Wind Press
QNH
hPa
Press
MSL
hPa
Rain
since 9 am
mm
Dir
 
Spd
km/h
Gust
km/h
Spd
kts
Gust
kts
05/11:30pm 25.3 30.8 23.4 89 1.3 CALM 0 0 0 0 1006.7 1006.6 0.0
05/11:00pm 25.5 30.7 22.8 85 1.8 CALM 0 0 0 0 1006.8 1006.7 0.0
05/10:30pm 26.0 31.3 23.1 84 2.0 CALM 0 0 0 0 1006.9 1006.8 0.0
05/10:00pm 26.5 31.4 22.3 78 2.8 CALM 0 0 0 0 1006.8 1006.7 0.0
05/09:30pm 27.2 30.9 20.8 68 4.2 WNW 2 4 1 2 1006.8 1006.7 0.0
05/09:00pm 27.8 30.6 19.6 61 5.3 WNW 4 6 2 3 1006.7 1006.6 0.0
05/08:30pm 27.6 31.9 21.2 68 4.3 CALM 0 0 0 0 1006.4 1006.3 0.0
05/08:00pm 28.3 32.1 20.1 61 5.4 CALM 0 0 0 0 1006.0 1005.9 0.0
05/07:30pm 29.0 33.7 22.0 66 4.7 CALM 0 0 0 0 1005.6 1005.5 0.0
05/07:00pm 31.3 33.9 19.3 49 7.8 SSE 4 4 2 2 1005.1 1005.0 0.0
05/06:30pm 32.8 33.2 15.3 34 10.9 SSE 7 13 4 7 1004.8 1004.7 0.0
05/06:00pm 33.4 33.8 15.4 34 11.2 SSE 7 13 4 7 1004.6 1004.5 0.0
05/05:30pm 33.9 33.4 14.9 32 11.8 SSE 11 17 6 9 1004.3 1004.2 0.0
05/05:00pm 34.4 33.5 14.8 30 12.1 S 13 19 7 10 1004.2 1004.1 0.0
05/04:30pm 34.9 33.4 14.2 28 12.8 S 15 24 8 13 1004.1 1004.0 0.0
05/04:00pm 35.0 34.8 15.8 31 12.1 S 11 22 6 12 1004.0 1003.9 0.0
05/03:30pm 35.3 35.1 15.6 31 12.4 S 11 28 6 15 1004.4 1004.3 0.0

Other Formats:

Comma delimited format used in spreadsheet applications
http://www.bom.gov.au/fwo/IDD60801/IDD60801.94106.axf

JavaScript Object Notation format (JSON) in row-major order
http://www.bom.gov.au/fwo/IDD60801/IDD60801.94106.json